createdAt,value
2022-08-01T00:00:03.707Z,100.00
2022-08-01T00:02:32.630Z,100.00
2022-08-01T00:05:01.028Z,100.00
2022-08-01T00:07:28.598Z,100.00
2022-08-01T00:09:55.531Z,100.00
2022-08-01T00:12:23.519Z,100.00
2022-08-01T00:14:50.131Z,100.00
2022-08-01T00:17:16.734Z,100.00
2022-08-01T00:19:43.275Z,100.00
2022-08-01T00:22:09.873Z,100.00
2022-08-01T00:24:36.586Z,100.00
2022-08-01T00:27:03.528Z,100.00
2022-08-01T00:30:11.765Z,100.00
2022-08-01T00:32:17.415Z,100.00
2022-08-01T00:34:43.909Z,100.00
2022-08-01T00:37:10.389Z,100.00
2022-08-01T00:39:42.056Z,100.00
2022-08-01T00:42:11.882Z,100.00
2022-08-01T00:44:38.894Z,100.00
2022-08-01T00:47:06.289Z,100.00
2022-08-01T00:49:33.612Z,100.00
2022-08-01T00:52:06.403Z,100.00
2022-08-01T00:54:33.682Z,100.00
2022-08-01T00:57:11.022Z,100.00
2022-08-01T00:59:37.805Z,100.00
2022-08-01T01:02:14.961Z,100.00
2022-08-01T01:04:43.178Z,100.00
2022-08-01T01:07:49.802Z,100.00
2022-08-01T01:10:23.249Z,100.00
2022-08-01T01:12:52.659Z,100.00
2022-08-01T01:15:37.243Z,100.00
2022-08-01T01:18:08.167Z,100.00
2022-08-01T01:20:46.717Z,100.00
2022-08-01T01:23:35.387Z,100.00
2022-08-01T01:26:18.049Z,100.00
2022-08-01T01:29:09.403Z,100.00
2022-08-01T01:32:03.779Z,100.00
2022-08-01T01:34:35.150Z,100.00
2022-08-01T01:37:03.620Z,100.00
2022-08-01T01:39:33.583Z,100.00
2022-08-01T01:42:02.270Z,100.00
2022-08-01T01:44:30.412Z,100.00
2022-08-01T01:46:59.104Z,100.00
2022-08-01T01:49:28.293Z,100.00
2022-08-01T01:52:02.195Z,100.00
2022-08-01T01:54:41.757Z,100.00
2022-08-01T01:57:09.750Z,100.00
2022-08-01T01:59:39.956Z,100.00
2022-08-01T02:02:08.333Z,100.00
2022-08-01T02:04:38.822Z,100.00
2022-08-01T02:07:07.745Z,100.00
2022-08-01T02:09:36.418Z,100.00
2022-08-01T02:12:09.372Z,100.00
2022-08-01T02:14:36.858Z,100.00
2022-08-01T02:17:05.146Z,100.00
2022-08-01T02:19:38.921Z,100.00
2022-08-01T02:22:17.743Z,100.00
2022-08-01T02:24:55.769Z,100.00
2022-08-01T02:27:28.765Z,100.00
2022-08-01T02:30:08.106Z,100.00
2022-08-01T02:32:43.787Z,100.00
2022-08-01T02:35:28.326Z,100.00
2022-08-01T02:37:58.669Z,100.00
2022-08-01T02:40:28.574Z,100.00
2022-08-01T02:42:58.593Z,100.00
2022-08-01T02:45:32.467Z,100.00
2022-08-01T02:48:06.780Z,100.00
2022-08-01T02:50:34.992Z,100.00
2022-08-01T02:53:04.934Z,100.00
2022-08-01T02:55:33.896Z,100.00
2022-08-01T02:58:10.157Z,100.00
2022-08-01T03:00:42.162Z,100.00
2022-08-01T03:03:11.162Z,100.00
2022-08-01T03:05:41.150Z,100.00
2022-08-01T03:08:14.634Z,100.00
2022-08-01T03:10:44.050Z,100.00
2022-08-01T03:13:12.145Z,100.00
2022-08-01T03:15:41.628Z,100.00
2022-08-01T03:18:10.626Z,100.00
2022-08-01T03:20:37.178Z,100.00
2022-08-01T03:23:09.589Z,100.00
2022-08-01T03:25:39.603Z,100.00
2022-08-01T03:28:08.026Z,100.00
2022-08-01T03:30:37.826Z,100.00
2022-08-01T03:33:04.973Z,100.00
2022-08-01T03:35:35.184Z,100.00
2022-08-01T03:38:16.172Z,100.00
2022-08-01T03:40:58.599Z,100.00
2022-08-01T03:43:29.468Z,100.00
2022-08-01T03:46:02.306Z,100.00
2022-08-01T03:48:33.682Z,100.00
2022-08-01T03:51:00.719Z,100.00
2022-08-01T03:53:33.687Z,100.00
2022-08-01T03:56:02.683Z,100.00
2022-08-01T03:58:31.337Z,100.00
2022-08-01T04:00:58.671Z,100.00
2022-08-01T04:03:25.773Z,100.00
2022-08-01T04:05:52.199Z,100.00
2022-08-01T04:08:18.715Z,100.00
2022-08-01T04:10:45.215Z,100.00
2022-08-01T04:13:11.714Z,100.00
2022-08-01T04:15:38.195Z,100.00
2022-08-01T04:18:05.144Z,100.00
2022-08-01T04:20:32.147Z,100.00
2022-08-01T04:22:59.590Z,100.00
2022-08-01T04:25:29.520Z,100.00
2022-08-01T04:27:58.659Z,100.00
2022-08-01T04:30:28.450Z,100.00
2022-08-01T04:32:58.576Z,100.00
2022-08-01T04:36:01.607Z,100.00
2022-08-01T04:38:18.029Z,100.00
2022-08-01T04:40:46.817Z,100.00
2022-08-01T04:43:14.987Z,100.00
2022-08-01T04:45:44.539Z,100.00
2022-08-01T04:48:12.739Z,100.00
2022-08-01T04:50:39.195Z,100.00
2022-08-01T04:53:06.041Z,100.00
2022-08-01T04:55:32.551Z,100.00
2022-08-01T04:57:59.550Z,100.00
2022-08-01T05:00:27.615Z,100.00
2022-08-01T05:02:54.071Z,100.00
2022-08-01T05:05:21.906Z,100.00
2022-08-01T05:07:48.863Z,100.00
2022-08-01T05:10:15.345Z,100.00
2022-08-01T05:12:41.946Z,100.00
2022-08-01T05:15:14.787Z,100.00
2022-08-01T05:17:43.306Z,100.00
2022-08-01T05:20:11.020Z,100.00
2022-08-01T05:22:37.600Z,100.00
2022-08-01T05:25:08.830Z,100.00
2022-08-01T05:27:40.338Z,100.00
2022-08-01T05:30:10.565Z,100.00
2022-08-01T05:32:37.366Z,100.00
2022-08-01T05:35:04.859Z,100.00
2022-08-01T05:37:31.413Z,100.00
2022-08-01T05:39:58.608Z,100.00
2022-08-01T05:42:25.131Z,100.00
2022-08-01T05:44:51.883Z,100.00
2022-08-01T05:47:18.583Z,100.00
2022-08-01T05:49:46.247Z,100.00
2022-08-01T05:52:13.213Z,100.00
2022-08-01T05:54:39.859Z,100.00
2022-08-01T05:57:07.368Z,100.00
2022-08-01T05:59:34.501Z,100.00
2022-08-01T06:02:01.215Z,100.00
2022-08-01T06:04:28.721Z,100.00
2022-08-01T06:06:55.267Z,100.00
2022-08-01T06:09:21.776Z,100.00
2022-08-01T06:11:48.418Z,100.00
2022-08-01T06:14:15.091Z,100.00
2022-08-01T06:16:41.489Z,100.00
2022-08-01T06:19:07.944Z,100.00
2022-08-01T06:21:34.562Z,100.00
2022-08-01T06:24:01.091Z,100.00
2022-08-01T06:26:28.157Z,100.00
2022-08-01T06:28:54.779Z,100.00
2022-08-01T06:31:21.537Z,100.00
2022-08-01T06:33:48.140Z,100.00
2022-08-01T06:36:14.603Z,100.00
2022-08-01T06:38:41.082Z,100.00
2022-08-01T06:41:07.663Z,100.00
2022-08-01T06:43:34.170Z,100.00
2022-08-01T06:46:00.928Z,99.61
2022-08-01T06:48:27.911Z,99.57
2022-08-01T06:51:09.335Z,98.08
2022-08-01T06:53:39.381Z,99.41
2022-08-01T06:56:07.076Z,98.26
2022-08-01T06:58:35.254Z,98.27
2022-08-01T07:01:06.803Z,97.87
2022-08-01T07:04:00.668Z,98.39
2022-08-01T07:06:27.536Z,97.44
2022-08-01T07:08:54.558Z,96.33
2022-08-01T07:11:22.908Z,95.90
2022-08-01T07:13:52.748Z,95.98
2022-08-01T07:16:19.293Z,96.47
2022-08-01T07:18:45.850Z,96.30
2022-08-01T07:21:16.754Z,95.29
2022-08-01T07:24:00.303Z,96.02
2022-08-01T07:26:28.867Z,95.18
2022-08-01T07:28:55.512Z,94.62
2022-08-01T07:31:22.383Z,94.75
2022-08-01T07:33:49.560Z,95.54
2022-08-01T07:36:19.765Z,94.83
2022-08-01T07:38:47.229Z,94.95
2022-08-01T07:41:13.878Z,95.49
2022-08-01T07:43:40.365Z,93.79
2022-08-01T07:46:07.113Z,92.07
2022-08-01T07:48:34.025Z,90.36
2022-08-01T07:51:00.798Z,89.79
2022-08-01T07:53:27.554Z,89.99
2022-08-01T07:55:54.113Z,89.17
2022-08-01T07:58:20.581Z,87.79
2022-08-01T08:00:47.027Z,88.71
2022-08-01T08:03:13.437Z,87.98
2022-08-01T08:05:52.847Z,86.82
2022-08-01T08:08:26.191Z,87.81
2022-08-01T08:10:52.798Z,87.78
2022-08-01T08:13:19.427Z,86.20
2022-08-01T08:15:48.298Z,86.01
2022-08-01T08:18:15.154Z,86.04
2022-08-01T08:20:41.664Z,84.51
2022-08-01T08:23:43.308Z,83.55
2022-08-01T08:26:11.546Z,84.15
2022-08-01T08:28:38.035Z,83.64
2022-08-01T08:31:07.193Z,84.30
2022-08-01T08:33:33.790Z,82.28
2022-08-01T08:36:00.500Z,80.04
2022-08-01T08:38:30.116Z,80.68
2022-08-01T08:40:57.944Z,82.16
2022-08-01T08:43:26.242Z,83.86
2022-08-01T08:45:59.015Z,82.33
2022-08-01T08:48:27.890Z,83.36
2022-08-01T08:50:56.184Z,82.69
2022-08-01T08:53:23.684Z,82.79
2022-08-01T08:55:55.413Z,82.85
2022-08-01T08:58:30.524Z,83.20
2022-08-01T09:00:59.986Z,83.00
2022-08-01T09:03:27.754Z,82.17
2022-08-01T09:05:54.340Z,82.48
2022-08-01T09:08:20.799Z,83.26
2022-08-01T09:10:47.400Z,80.95
2022-08-01T09:13:15.368Z,80.17
2022-08-01T09:15:46.737Z,78.10
2022-08-01T09:18:32.994Z,78.07
2022-08-01T09:21:18.920Z,76.37
2022-08-01T09:23:53.903Z,76.50
2022-08-01T09:26:31.014Z,76.63
2022-08-01T09:29:00.224Z,77.80
2022-08-01T09:31:38.150Z,77.28
2022-08-01T09:34:05.582Z,77.29
2022-08-01T09:36:55.392Z,77.20
2022-08-01T09:39:24.899Z,76.96
2022-08-01T09:41:52.286Z,75.65
2022-08-01T09:44:45.599Z,75.86
2022-08-01T09:47:25.395Z,76.15
2022-08-01T09:49:59.192Z,76.10
2022-08-01T09:52:29.516Z,75.53
2022-08-01T09:55:08.557Z,74.44
2022-08-01T09:57:35.486Z,74.02
2022-08-01T10:00:04.112Z,74.02
2022-08-01T10:02:41.605Z,74.63
2022-08-01T10:05:10.950Z,73.96
2022-08-01T10:08:00.205Z,73.36
2022-08-01T10:10:29.019Z,72.97
2022-08-01T10:12:59.995Z,72.46
2022-08-01T10:15:37.533Z,70.76
2022-08-01T10:18:16.236Z,70.03
2022-08-01T10:20:48.932Z,69.95
2022-08-01T10:23:16.351Z,70.82
2022-08-01T10:25:46.836Z,71.64
2022-08-01T10:28:23.689Z,71.71
2022-08-01T10:30:53.386Z,72.00
2022-08-01T10:33:50.953Z,73.15
2022-08-01T10:36:11.254Z,73.21
2022-08-01T10:38:38.051Z,72.74
2022-08-01T10:41:08.550Z,72.68
2022-08-01T10:43:36.223Z,72.96
2022-08-01T10:46:05.239Z,72.22
2022-08-01T10:48:52.224Z,71.16
2022-08-01T10:51:22.072Z,69.34
2022-08-01T10:53:56.061Z,67.11
2022-08-01T10:56:27.188Z,67.21
2022-08-01T10:59:11.454Z,65.11
2022-08-01T11:01:43.391Z,65.77
2022-08-01T11:04:17.984Z,65.65
2022-08-01T11:07:10.208Z,64.18
2022-08-01T11:09:41.693Z,63.47
2022-08-01T11:12:13.558Z,61.00
2022-08-01T11:15:00.078Z,60.61
2022-08-01T11:17:54.871Z,61.49
2022-08-01T11:20:30.193Z,61.28
2022-08-01T11:23:00.323Z,59.90
2022-08-01T11:26:05.441Z,59.46
2022-08-01T11:28:32.165Z,58.88
2022-08-01T11:31:07.683Z,58.38
2022-08-01T11:33:55.059Z,59.09
2022-08-01T11:36:55.842Z,59.77
2022-08-01T11:39:13.285Z,61.43
2022-08-01T11:41:41.308Z,60.15
2022-08-01T11:44:14.317Z,58.34
2022-08-01T11:46:49.971Z,57.69
2022-08-01T11:49:45.251Z,58.15
2022-08-01T11:52:37.007Z,56.34
2022-08-01T11:55:03.442Z,57.53
2022-08-01T11:57:35.603Z,56.48
2022-08-01T12:00:15.452Z,56.05
2022-08-01T12:02:45.209Z,55.27
2022-08-01T12:05:15.557Z,55.05
2022-08-01T12:07:43.905Z,53.96
2022-08-01T12:10:16.695Z,55.26
2022-08-01T12:12:44.628Z,54.90
2022-08-01T12:15:11.650Z,55.06
2022-08-01T12:17:57.854Z,54.92
2022-08-01T12:20:31.992Z,54.51
2022-08-01T12:23:25.019Z,55.09
2022-08-01T12:25:54.737Z,55.02
2022-08-01T12:28:22.068Z,54.79
2022-08-01T12:30:50.045Z,54.23
2022-08-01T12:33:19.822Z,55.18
2022-08-01T12:35:46.489Z,55.99
2022-08-01T12:38:23.917Z,55.93
2022-08-01T12:40:53.057Z,55.34
2022-08-01T12:43:27.907Z,54.38
2022-08-01T12:45:57.949Z,54.75
2022-08-01T12:48:26.089Z,54.60
2022-08-01T12:50:53.766Z,54.12
2022-08-01T12:53:21.894Z,54.46
2022-08-01T12:55:58.131Z,54.94
2022-08-01T12:58:25.383Z,55.27
2022-08-01T13:01:04.858Z,55.89
2022-08-01T13:03:31.532Z,54.52
2022-08-01T13:05:59.591Z,54.09
2022-08-01T13:08:31.829Z,54.44
2022-08-01T13:11:06.929Z,53.88
2022-08-01T13:13:45.048Z,54.53
2022-08-01T13:16:25.951Z,55.25
2022-08-01T13:19:00.360Z,52.39
2022-08-01T13:21:29.478Z,52.02
2022-08-01T13:24:16.579Z,55.00
2022-08-01T13:26:48.515Z,54.49
2022-08-01T13:29:17.315Z,54.75
2022-08-01T13:31:44.858Z,55.34
2022-08-01T13:34:12.294Z,56.61
2022-08-01T13:36:39.717Z,56.90
2022-08-01T13:39:25.169Z,57.41
2022-08-01T13:41:51.925Z,56.80
2022-08-01T13:44:18.917Z,56.24
2022-08-01T13:46:49.682Z,56.41
2022-08-01T13:49:18.921Z,56.33
2022-08-01T13:51:46.776Z,55.17
2022-08-01T13:54:13.454Z,55.70
2022-08-01T13:56:39.945Z,54.46
2022-08-01T13:59:07.425Z,55.12
2022-08-01T14:01:34.755Z,54.13
2022-08-01T14:04:02.912Z,54.60
2022-08-01T14:06:30.565Z,53.84
2022-08-01T14:08:57.049Z,53.42
2022-08-01T14:11:24.886Z,53.84
2022-08-01T14:13:55.249Z,54.01
2022-08-01T14:16:21.724Z,53.74
2022-08-01T14:18:48.250Z,53.77
2022-08-01T14:21:15.860Z,54.06
2022-08-01T14:23:43.898Z,53.62
2022-08-01T14:26:12.469Z,53.15
2022-08-01T14:28:40.047Z,54.08
2022-08-01T14:31:07.357Z,55.05
2022-08-01T14:33:34.264Z,55.05
2022-08-01T14:36:29.686Z,55.48
2022-08-01T14:38:48.452Z,53.57
2022-08-01T14:41:15.906Z,54.01
2022-08-01T14:43:42.578Z,54.70
2022-08-01T14:46:10.799Z,54.69
2022-08-01T14:48:37.323Z,53.88
2022-08-01T14:51:05.457Z,53.54
2022-08-01T14:53:33.625Z,52.95
2022-08-01T14:56:02.330Z,52.49
2022-08-01T14:58:29.522Z,52.39
2022-08-01T15:00:58.961Z,52.90
2022-08-01T15:03:26.789Z,52.53
2022-08-01T15:05:53.358Z,53.32
2022-08-01T15:08:19.876Z,53.69
2022-08-01T15:10:46.363Z,53.24
2022-08-01T15:13:13.142Z,53.25
2022-08-01T15:15:39.622Z,54.55
2022-08-01T15:18:06.069Z,53.18
2022-08-01T15:20:33.969Z,53.12
2022-08-01T15:23:03.242Z,53.03
2022-08-01T15:25:41.660Z,52.32
2022-08-01T15:28:10.708Z,52.40
2022-08-01T15:30:37.391Z,51.30
2022-08-01T15:33:03.989Z,51.88
2022-08-01T15:35:31.329Z,50.44
2022-08-01T15:37:58.512Z,50.92
2022-08-01T15:40:28.409Z,50.59
2022-08-01T15:42:55.022Z,50.49
2022-08-01T15:45:46.493Z,50.78
2022-08-01T15:48:10.221Z,50.80
2022-08-01T15:50:39.247Z,51.71
2022-08-01T15:53:06.882Z,51.12
2022-08-01T15:55:40.279Z,51.55
2022-08-01T15:58:07.563Z,50.52
2022-08-01T16:00:39.125Z,50.82
2022-08-01T16:03:07.686Z,51.01
2022-08-01T16:05:41.063Z,51.24
2022-08-01T16:08:12.181Z,50.86
2022-08-01T16:10:38.818Z,51.09
2022-08-01T16:13:07.014Z,51.73
2022-08-01T16:15:39.196Z,51.00
2022-08-01T16:18:08.026Z,50.47
2022-08-01T16:20:35.584Z,50.82
2022-08-01T16:23:09.033Z,51.00
2022-08-01T16:25:39.427Z,51.70
2022-08-01T16:28:06.274Z,52.14
2022-08-01T16:30:33.249Z,52.25
2022-08-01T16:33:16.158Z,52.36
2022-08-01T16:35:46.946Z,53.28
2022-08-01T16:38:19.257Z,52.89
2022-08-01T16:40:50.735Z,53.02
2022-08-01T16:43:19.024Z,53.08
2022-08-01T16:45:46.773Z,52.99
2022-08-01T16:48:20.690Z,52.87
2022-08-01T16:50:52.890Z,53.45
2022-08-01T16:53:20.668Z,54.24
2022-08-01T16:55:50.242Z,53.50
2022-08-01T16:58:22.291Z,54.17
2022-08-01T17:00:57.782Z,54.04
2022-08-01T17:03:51.907Z,53.99
2022-08-01T17:06:20.749Z,54.75
2022-08-01T17:08:49.902Z,54.01
2022-08-01T17:11:16.731Z,54.60
2022-08-01T17:13:43.686Z,54.81
2022-08-01T17:16:11.132Z,54.63
2022-08-01T17:18:37.949Z,54.71
2022-08-01T17:21:04.638Z,54.84
2022-08-01T17:23:32.011Z,54.80
2022-08-01T17:25:59.664Z,54.34
2022-08-01T17:28:27.379Z,54.11
2022-08-01T17:30:54.703Z,54.38
2022-08-01T17:33:21.799Z,54.60
2022-08-01T17:35:48.501Z,53.94
2022-08-01T17:38:14.976Z,53.96
2022-08-01T17:40:41.663Z,54.60
2022-08-01T17:43:08.644Z,54.36
2022-08-01T17:45:39.333Z,54.26
2022-08-01T17:48:17.872Z,55.06
2022-08-01T17:50:46.034Z,55.84
2022-08-01T17:53:13.419Z,56.11
2022-08-01T17:55:55.807Z,56.70
2022-08-01T17:58:33.726Z,56.91
2022-08-01T18:01:12.360Z,57.83
2022-08-01T18:03:41.437Z,58.39
2022-08-01T18:06:09.126Z,58.96
2022-08-01T18:08:36.041Z,59.06
2022-08-01T18:11:02.505Z,59.37
2022-08-01T18:13:30.493Z,59.39
2022-08-01T18:15:58.102Z,59.44
2022-08-01T18:18:33.768Z,59.31
2022-08-01T18:21:04.795Z,59.32
2022-08-01T18:23:33.411Z,59.00
2022-08-01T18:26:02.329Z,59.23
2022-08-01T18:28:38.000Z,60.06
2022-08-01T18:31:08.062Z,59.79
2022-08-01T18:33:35.973Z,59.66
2022-08-01T18:36:04.570Z,60.06
2022-08-01T18:38:35.231Z,60.30
2022-08-01T18:41:05.892Z,60.51
2022-08-01T18:43:32.429Z,60.83
2022-08-01T18:46:01.465Z,60.80
2022-08-01T18:48:28.723Z,61.05
2022-08-01T18:50:55.323Z,61.68
2022-08-01T18:53:24.872Z,61.19
2022-08-01T18:55:51.482Z,61.75
2022-08-01T18:58:18.403Z,62.33
2022-08-01T19:00:45.126Z,61.95
2022-08-01T19:03:13.509Z,62.65
2022-08-01T19:05:39.994Z,63.19
2022-08-01T19:08:07.907Z,63.09
2022-08-01T19:10:36.474Z,63.07
2022-08-01T19:13:03.521Z,63.30
2022-08-01T19:15:30.622Z,63.36
2022-08-01T19:17:57.190Z,63.37
2022-08-01T19:20:24.098Z,62.81
2022-08-01T19:22:50.641Z,62.86
2022-08-01T19:25:17.311Z,63.81
2022-08-01T19:27:48.454Z,64.08
2022-08-01T19:30:16.363Z,64.28
2022-08-01T19:32:47.369Z,64.45
2022-08-01T19:35:17.034Z,64.35
2022-08-01T19:37:47.065Z,64.69
2022-08-01T19:40:27.769Z,65.41
2022-08-01T19:42:56.772Z,65.32
2022-08-01T19:45:25.147Z,65.66
2022-08-01T19:47:57.386Z,65.90
2022-08-01T19:50:51.184Z,65.41
2022-08-01T19:53:20.916Z,66.13
2022-08-01T19:55:47.423Z,65.57
2022-08-01T19:58:26.936Z,66.14
2022-08-01T20:00:55.378Z,66.59
2022-08-01T20:03:23.951Z,66.65
2022-08-01T20:05:51.054Z,66.64
2022-08-01T20:08:19.501Z,66.98
2022-08-01T20:10:47.330Z,66.53
2022-08-01T20:13:14.397Z,66.68
2022-08-01T20:15:43.293Z,67.32
2022-08-01T20:18:09.861Z,67.46
2022-08-01T20:20:37.992Z,68.20
2022-08-01T20:23:10.510Z,67.06
2022-08-01T20:25:48.288Z,67.65
2022-08-01T20:28:15.879Z,67.24
2022-08-01T20:30:43.613Z,67.07
2022-08-01T20:33:11.526Z,67.22
2022-08-01T20:35:50.883Z,67.11
2022-08-01T20:38:27.465Z,67.21
2022-08-01T20:40:59.865Z,67.97
2022-08-01T20:43:27.524Z,68.14
2022-08-01T20:45:56.130Z,68.18
2022-08-01T20:48:26.131Z,68.20
2022-08-01T20:51:11.503Z,67.85
2022-08-01T20:53:42.299Z,68.26
2022-08-01T20:56:23.937Z,66.77
2022-08-01T20:59:55.058Z,67.61
2022-08-01T21:02:26.145Z,67.30
2022-08-01T21:05:00.814Z,67.24
2022-08-01T21:07:32.392Z,66.94
2022-08-01T21:10:07.956Z,67.16
2022-08-01T21:12:49.532Z,67.77
2022-08-01T21:15:32.310Z,67.34
2022-08-01T21:18:03.584Z,67.49
2022-08-01T21:20:33.874Z,68.25
2022-08-01T21:23:18.729Z,68.67
2022-08-01T21:25:47.822Z,69.46
2022-08-01T21:28:15.598Z,69.22
2022-08-01T21:30:42.512Z,69.14
2022-08-01T21:33:23.842Z,68.73
2022-08-01T21:35:55.578Z,68.73
2022-08-01T21:38:23.906Z,69.13
2022-08-01T21:40:53.007Z,69.71
2022-08-01T21:43:21.025Z,70.13
2022-08-01T21:45:58.326Z,69.95
2022-08-01T21:48:27.173Z,69.97
2022-08-01T21:51:05.952Z,70.54
2022-08-01T21:54:09.860Z,70.47
2022-08-01T21:57:23.773Z,70.54
2022-08-01T22:00:10.067Z,70.28
2022-08-01T22:03:07.119Z,70.07
2022-08-01T22:05:49.580Z,70.52
2022-08-01T22:08:44.915Z,70.81
2022-08-01T22:11:18.070Z,71.07
2022-08-01T22:13:44.534Z,71.34
2022-08-01T22:16:13.062Z,71.37
2022-08-01T22:18:39.735Z,71.12
2022-08-01T22:21:07.787Z,71.34
2022-08-01T22:23:37.827Z,71.54
2022-08-01T22:26:09.651Z,71.94
2022-08-01T22:28:38.141Z,72.74
2022-08-01T22:31:08.882Z,73.16
2022-08-01T22:33:37.662Z,73.92
2022-08-01T22:36:06.131Z,73.98
2022-08-01T22:38:34.229Z,75.08
2022-08-01T22:41:05.131Z,75.64
2022-08-01T22:44:10.127Z,75.48
2022-08-01T22:47:07.582Z,75.94
2022-08-01T22:49:42.064Z,75.92
2022-08-01T22:52:19.931Z,75.75
2022-08-01T22:54:51.522Z,75.91
2022-08-01T22:57:34.333Z,75.20
2022-08-01T23:00:06.442Z,75.81
2022-08-01T23:02:37.386Z,75.81
2022-08-01T23:05:07.999Z,76.68
2022-08-01T23:07:39.231Z,76.99
2022-08-01T23:10:07.463Z,76.60
2022-08-01T23:12:33.962Z,77.00
2022-08-01T23:15:25.185Z,76.96
2022-08-01T23:17:52.312Z,77.14
2022-08-01T23:20:19.142Z,77.01
2022-08-01T23:22:46.932Z,77.83
2022-08-01T23:25:15.124Z,77.95
2022-08-01T23:27:51.971Z,78.31
2022-08-01T23:30:32.951Z,78.22
2022-08-01T23:33:00.653Z,78.32
2022-08-01T23:35:38.745Z,77.80
2022-08-01T23:38:06.785Z,77.53
2022-08-01T23:40:35.080Z,77.76
2022-08-01T23:43:06.556Z,77.42
2022-08-01T23:46:04.191Z,76.79
2022-08-01T23:48:31.029Z,77.62
2022-08-01T23:50:57.616Z,77.64
2022-08-01T23:53:24.187Z,78.13
2022-08-01T23:55:58.416Z,77.61
2022-08-01T23:58:25.273Z,77.80
